Time;durP1;ratioP1;P1;durP2;ratioP2;P2;SDS_P1;SDS_P2;PMS_P1;PMS_P2;Temp;Humidity;BMP_temperature;BMP_pressure;BME280_temperature;BME280_humidity;BME280_pressure;Samples;Min_cycle;Max_cycle;Signal;HPM_P1;HPM_P2
2022/05/31 00:00:18;;;;;;;5.17;3.80;;;8.20;99.90;;;;;;4956877;29;20618;-87
2022/05/31 00:02:46;;;;;;;5.43;3.90;;;8.20;99.90;;;;;;4956892;28;20228;-89
2022/05/31 00:05:13;;;;;;;4.90;3.33;;;8.20;99.90;;;;;;4956896;28;20294;-87
2022/05/31 00:07:41;;;;;;;3.77;3.37;;;8.10;99.90;;;;;;4956810;28;20555;-88
2022/05/31 00:10:13;;;;;;;6.03;3.50;;;8.10;99.90;;;;;;4956862;29;20276;-87
2022/05/31 00:12:40;;;;;;;5.97;3.90;;;8.00;99.90;;;;;;4956690;28;20692;-88
2022/05/31 00:15:09;;;;;;;4.03;3.50;;;8.00;99.90;;;;;;4956667;28;20202;-88
2022/05/31 00:17:36;;;;;;;4.93;3.60;;;8.00;99.90;;;;;;4955283;28;20240;-89
2022/05/31 00:20:04;;;;;;;5.10;3.27;;;7.90;99.90;;;;;;4956924;28;20238;-88
2022/05/31 00:22:34;;;;;;;5.33;3.87;;;7.90;99.90;;;;;;4956967;29;20308;-88
2022/05/31 00:25:01;;;;;;;5.37;3.57;;;7.90;99.90;;;;;;4956753;29;20221;-88
2022/05/31 00:27:30;;;;;;;6.17;3.90;;;7.80;99.90;;;;;;4956078;29;20735;-88
2022/05/31 00:29:57;;;;;;;4.67;3.50;;;7.80;99.90;;;;;;4956393;29;20196;-88
2022/05/31 00:32:28;;;;;;;4.33;3.73;;;7.80;99.90;;;;;;4966628;28;20288;-88
2022/05/31 00:34:57;;;;;;;4.97;3.80;;;7.80;99.90;;;;;;4975597;28;20271;-87
2022/05/31 00:37:24;;;;;;;4.53;3.43;;;7.70;99.90;;;;;;4975539;28;20312;-87
2022/05/31 00:39:51;;;;;;;5.73;3.70;;;7.70;99.90;;;;;;4975700;28;20306;-88
2022/05/31 00:42:21;;;;;;;4.23;3.23;;;7.70;99.90;;;;;;4975746;28;20212;-89
2022/05/31 00:44:51;;;;;;;5.47;3.20;;;7.70;99.90;;;;;;4975937;28;20184;-89
2022/05/31 00:47:23;;;;;;;7.57;4.03;;;7.70;99.90;;;;;;4976274;28;20210;-88
2022/05/31 00:49:54;;;;;;;6.90;4.40;;;7.70;99.90;;;;;;4975703;28;20556;-88
2022/05/31 00:52:24;;;;;;;7.30;4.53;;;7.70;99.90;;;;;;4975452;28;20407;-88
2022/05/31 00:54:55;;;;;;;8.53;5.20;;;7.70;99.90;;;;;;4975168;28;20780;-88
2022/05/31 00:57:23;;;;;;;7.93;4.70;;;7.60;99.90;;;;;;4975255;28;20722;-87
2022/05/31 00:59:54;;;;;;;7.57;4.70;;;7.70;99.90;;;;;;4975276;28;20201;-87
2022/05/31 01:02:22;;;;;;;7.63;3.93;;;7.60;99.90;;;;;;4974766;28;20250;-87
2022/05/31 01:04:52;;;;;;;6.67;4.10;;;7.70;99.90;;;;;;4975187;28;20732;-88
2022/05/31 01:07:19;;;;;;;6.40;3.80;;;7.70;99.90;;;;;;4975145;28;20636;-88
2022/05/31 01:09:46;;;;;;;5.97;3.40;;;7.60;99.90;;;;;;4975376;28;20538;-87
2022/05/31 01:12:14;;;;;;;5.70;3.50;;;7.70;99.90;;;;;;4974874;28;20283;-87
2022/05/31 01:14:42;;;;;;;6.03;4.03;;;7.60;99.90;;;;;;4974731;28;20201;-87
2022/05/31 01:17:13;;;;;;;6.57;3.63;;;7.60;99.90;;;;;;4974804;28;20205;-88
2022/05/31 01:20:00;;;;;;;6.40;3.60;;;7.60;99.90;;;;;;4974781;28;20216;-88
2022/05/31 01:22:36;;;;;;;6.03;3.57;;;7.50;99.90;;;;;;4966366;28;20233;-87
2022/05/31 01:25:15;;;;;;;5.67;3.50;;;7.50;99.90;;;;;;4955421;29;20209;-88
2022/05/31 01:27:50;;;;;;;10.20;5.40;;;7.50;99.90;;;;;;4955248;29;20200;-87
2022/05/31 01:30:18;;;;;;;6.60;4.10;;;7.40;99.90;;;;;;4955614;28;20243;-87
2022/05/31 01:32:56;;;;;;;5.65;4.00;;;7.40;99.90;;;;;;4955202;28;20253;-87
2022/05/31 01:35:28;;;;;;;9.43;4.87;;;7.30;99.90;;;;;;4955164;29;20896;-87
2022/05/31 01:38:00;;;;;;;8.67;4.87;;;7.30;99.90;;;;;;4954934;28;20186;-86
2022/05/31 01:40:34;;;;;;;8.20;4.97;;;7.30;99.90;;;;;;4955114;29;20272;-87
2022/05/31 01:43:01;;;;;;;8.43;5.17;;;7.30;99.90;;;;;;4955027;29;20251;-87
2022/05/31 01:45:34;;;;;;;8.77;5.53;;;7.20;99.90;;;;;;4954902;29;20228;-87
2022/05/31 01:48:05;;;;;;;9.47;4.80;;;7.30;99.90;;;;;;4954851;29;20185;-86
2022/05/31 01:50:32;;;;;;;8.53;4.77;;;7.30;99.90;;;;;;4954753;29;20218;-87
2022/05/31 01:53:01;;;;;;;5.50;4.27;;;7.30;99.90;;;;;;4955475;28;20284;-87
2022/05/31 01:55:30;;;;;;;6.30;4.47;;;7.30;99.90;;;;;;4954863;28;20283;-87
2022/05/31 01:58:02;;;;;;;7.70;4.87;;;7.30;99.90;;;;;;4954453;28;20707;-87
2022/05/31 02:00:29;;;;;;;8.77;4.77;;;7.20;99.90;;;;;;4954520;28;20185;-87
2022/05/31 02:03:00;;;;;;;8.03;4.43;;;7.20;99.90;;;;;;4954269;28;20316;-87
2022/05/31 02:05:27;;;;;;;7.23;4.50;;;7.20;99.90;;;;;;4954303;29;20227;-87
2022/05/31 02:07:56;;;;;;;5.50;3.80;;;7.20;99.90;;;;;;4954387;28;20258;-86
2022/05/31 02:10:24;;;;;;;6.10;3.97;;;7.20;99.90;;;;;;4954521;28;20231;-86
2022/05/31 02:12:51;;;;;;;8.87;4.37;;;7.10;99.90;;;;;;4954597;29;20246;-87
2022/05/31 02:15:19;;;;;;;9.43;5.60;;;7.10;99.90;;;;;;4954745;29;20204;-87
2022/05/31 02:17:46;;;;;;;7.67;5.80;;;7.10;99.90;;;;;;4954022;29;20200;-87
2022/05/31 02:20:13;;;;;;;6.23;4.00;;;7.10;99.90;;;;;;4954319;29;20302;-86
2022/05/31 02:22:40;;;;;;;7.83;4.50;;;7.10;99.90;;;;;;4963334;28;20226;-86
2022/05/31 02:25:08;;;;;;;6.03;4.60;;;7.10;99.90;;;;;;4973600;28;20230;-86
2022/05/31 02:27:37;;;;;;;6.27;4.70;;;7.10;99.90;;;;;;4973403;28;20286;-86
2022/05/31 02:30:04;;;;;;;8.03;4.57;;;7.10;99.90;;;;;;4971172;28;20230;-87
2022/05/31 02:32:31;;;;;;;6.37;4.63;;;7.00;1.00;;;;;;4953779;28;20654;-87
2022/05/31 02:34:58;;;;;;;7.10;5.03;;;7.00;1.00;;;;;;4953554;28;20314;-87
2022/05/31 02:37:25;;;;;;;7.27;5.17;;;7.00;1.00;;;;;;4954077;28;20709;-86
2022/05/31 02:39:52;;;;;;;7.70;4.80;;;7.00;1.00;;;;;;4953688;28;20238;-86
2022/05/31 02:42:19;;;;;;;6.43;4.90;;;7.00;1.00;;;;;;4961887;28;20250;-87
2022/05/31 02:44:48;;;;;;;8.80;5.20;;;7.00;1.00;;;;;;4973347;28;20283;-87
2022/05/31 02:47:15;;;;;;;7.73;4.97;;;7.00;1.00;;;;;;4973130;28;20199;-88
2022/05/31 02:49:45;;;;;;;6.90;4.70;;;6.90;1.00;;;;;;4973180;28;20286;-88
2022/05/31 02:52:12;;;;;;;5.77;4.47;;;6.90;1.00;;;;;;4976486;28;20259;-86
2022/05/31 02:54:41;;;;;;;6.60;4.60;;;6.90;1.00;;;;;;4983393;28;20195;-90
2022/05/31 02:57:09;;;;;;;7.07;4.67;;;6.90;1.00;;;;;;4984802;28;20191;-86
2022/05/31 02:59:36;;;;;;;6.50;4.23;;;6.90;1.00;;;;;;4983179;28;20286;-85
2022/05/31 03:02:04;;;;;;;5.57;4.40;;;6.90;1.00;;;;;;4973200;28;20465;-88
2022/05/31 03:04:31;;;;;;;6.80;4.90;;;6.90;1.00;;;;;;4964462;28;20188;-86
2022/05/31 03:07:01;;;;;;;8.23;4.60;;;6.90;1.00;;;;;;4965372;28;20188;-89
2022/05/31 03:09:29;;;;;;;8.73;4.27;;;6.90;1.00;;;;;;4964450;29;20188;-86
2022/05/31 03:11:59;;;;;;;5.07;3.83;;;6.90;1.00;;;;;;4964343;28;20192;-87
2022/05/31 03:14:31;;;;;;;5.70;3.97;;;6.90;1.00;;;;;;4965310;29;20211;-89
2022/05/31 03:17:02;;;;;;;5.30;3.67;;;6.90;1.00;;;;;;4963825;29;20191;-88
2022/05/31 03:19:41;;;;;;;5.20;3.93;;;6.90;1.00;;;;;;4962906;29;20559;-88
2022/05/31 03:22:23;;;;;;;8.10;4.37;;;6.90;1.00;;;;;;4965329;29;20224;-88
2022/05/31 03:25:00;;;;;;;7.23;5.00;;;7.00;1.00;;;;;;4962641;28;20192;-88
2022/05/31 03:27:28;;;;;;;5.07;3.77;;;7.00;1.00;;;;;;4973614;28;20215;-87
2022/05/31 03:29:58;;;;;;;6.63;4.03;;;7.10;1.00;;;;;;4983961;28;20230;-87
2022/05/31 03:32:28;;;;;;;7.97;4.43;;;7.10;1.00;;;;;;4984660;28;20196;-88
2022/05/31 03:34:56;;;;;;;5.40;4.03;;;7.20;1.00;;;;;;4983131;28;20227;-89
2022/05/31 03:37:26;;;;;;;5.00;4.27;;;7.30;1.00;;;;;;4983827;28;20430;-91
2022/05/31 03:39:52;;;;;;;5.23;4.33;;;7.30;1.00;;;;;;4977127;28;20207;-87
2022/05/31 03:42:19;;;;;;;6.27;4.73;;;7.50;1.00;;;;;;4977132;28;20287;-86
2022/05/31 03:44:46;;;;;;;9.30;4.90;;;7.50;85.60;;;;;;4975828;28;20247;-89
2022/05/31 03:47:13;;;;;;;7.80;5.27;;;7.80;1.00;;;;;;4973400;28;20206;-88
2022/05/31 03:49:41;;;;;;;8.97;6.10;;;8.20;6.50;;;;;;4976714;28;20293;-87
2022/05/31 03:52:09;;;;;;;9.53;6.57;;;9.00;99.90;;;;;;4994515;28;20657;-86
2022/05/31 03:54:38;;;;;;;9.67;6.27;;;9.80;1.00;;;;;;4976781;28;20289;-86
2022/05/31 03:57:09;;;;;;;8.93;6.10;;;10.60;1.00;;;;;;4979021;28;20192;-88
2022/05/31 03:59:40;;;;;;;7.73;4.93;;;11.70;50.30;;;;;;4979776;28;20256;-89
2022/05/31 04:02:07;;;;;;;4.60;3.57;;;13.00;1.00;;;;;;4979353;28;20586;-88
2022/05/31 04:04:34;;;;;;;3.67;3.00;;;14.10;99.90;;;;;;4976609;28;20229;-89
2022/05/31 04:07:03;;;;;;;4.37;2.90;;;15.30;1.00;;;;;;4977541;28;20199;-90
2022/05/31 04:09:35;;;;;;;3.05;2.67;;;16.30;99.90;;;;;;4976546;28;20191;-92
2022/05/31 04:12:02;;;;;;;4.07;2.58;;;17.20;99.90;;;;;;4976339;28;20194;-90
2022/05/31 04:14:28;;;;;;;3.15;2.85;;;18.10;1.00;;;;;;4978291;28;20284;-90
2022/05/31 04:16:55;;;;;;;3.35;3.00;;;18.80;99.90;;;;;;4976637;28;20287;-89
2022/05/31 04:19:22;;;;;;;3.50;3.05;;;19.50;1.00;;;;;;4976618;28;20658;-89
2022/05/31 04:21:49;;;;;;;3.35;2.40;;;20.10;1.00;;;;;;4979097;28;20204;-88
2022/05/31 04:24:17;;;;;;;4.05;3.08;;;20.60;99.90;;;;;;4977477;28;20247;-91
2022/05/31 04:26:47;;;;;;;3.33;3.03;;;21.30;99.90;;;;;;4976341;28;20262;-92
2022/05/31 04:29:15;;;;;;;5.53;3.17;;;22.10;3.60;;;;;;4976051;28;20200;-93
2022/05/31 04:31:42;;;;;;;5.32;3.85;;;22.80;1.00;;;;;;4974142;28;20270;-90
2022/05/31 04:34:09;;;;;;;24.40;19.77;;;23.40;1.00;;;;;;4975197;28;20223;-89
2022/05/31 04:36:36;;;;;;;11.38;10.38;;;23.90;1.00;;;;;;4975444;28;20204;-90
2022/05/31 04:39:04;;;;;;;4.55;3.53;;;24.50;1.00;;;;;;4975855;28;20734;-92
2022/05/31 04:41:32;;;;;;;4.72;3.80;;;24.80;1.00;;;;;;4976067;28;20210;-91
2022/05/31 04:44:04;;;;;;;5.75;4.97;;;25.00;1.00;;;;;;4976585;28;20223;-93
2022/05/31 04:46:33;;;;;;;3.85;3.55;;;25.30;1.00;;;;;;4976191;28;20204;-90
2022/05/31 04:49:02;;;;;;;5.00;3.20;;;25.40;1.00;;;;;;4975886;28;20554;-89
2022/05/31 04:51:32;;;;;;;3.95;2.97;;;25.30;1.00;;;;;;4964948;28;20192;-90
2022/05/31 04:53:59;;;;;;;3.28;2.97;;;25.40;1.00;;;;;;4957679;28;20193;-89
2022/05/31 04:56:37;;;;;;;2.55;2.35;;;25.70;1.00;;;;;;4957546;28;20231;-93
2022/05/31 04:59:06;;;;;;;4.20;2.10;;;25.90;1.00;;;;;;4963523;29;20212;-89
2022/05/31 05:01:39;;;;;;;2.83;2.40;;;26.20;1.00;;;;;;4958488;28;20233;-92
2022/05/31 05:04:06;;;;;;;4.65;2.47;;;26.50;1.00;;;;;;4974164;28;20192;-89
2022/05/31 05:06:33;;;;;;;2.40;2.20;;;26.80;1.00;;;;;;4979888;28;20195;-87
2022/05/31 05:09:01;;;;;;;3.90;2.33;;;27.20;1.00;;;;;;4978423;28;20223;-91
2022/05/31 05:11:28;;;;;;;2.55;2.13;;;27.50;1.00;;;;;;4974745;28;20283;-90
2022/05/31 05:13:58;;;;;;;2.53;2.10;;;27.60;1.00;;;;;;4966420;28;20238;-94
2022/05/31 05:16:28;;;;;;;3.50;2.45;;;27.80;1.00;;;;;;4989466;28;20690;-93
2022/05/31 05:19:20;;;;;;;2.30;1.90;;;27.90;1.00;;;;;;4964006;28;20199;-90
2022/05/31 05:22:04;;;;;;;2.45;1.90;;;28.00;1.00;;;;;;4989839;28;20191;-93
2022/05/31 05:24:31;;;;;;;3.05;1.88;;;28.20;1.00;;;;;;4983807;28;20227;-90
2022/05/31 05:26:58;;;;;;;3.25;1.90;;;28.30;1.00;;;;;;4981925;28;20211;-96
2022/05/31 05:32:16;;;;;;;2.65;2.00;;;29.10;1.00;;;;;;4977328;28;20227;-94
2022/05/31 05:34:43;;;;;;;;;;;29.50;1.00;;;;;;4971831;28;20549;-91
2022/05/31 05:37:12;;;;;;;3.90;1.90;;;29.90;1.00;;;;;;4988326;28;20028;-92
2022/05/31 05:39:58;;;;;;;3.45;2.00;;;30.30;1.00;;;;;;4994236;28;20199;-92
2022/05/31 05:42:25;;;;;;;2.70;1.90;;;30.50;1.00;;;;;;4973696;28;20203;-93
2022/05/31 05:44:56;;;;;;;4.75;2.28;;;30.50;1.00;;;;;;4978929;28;20200;-95
2022/05/31 05:47:24;;;;;;;2.47;1.65;;;30.80;1.00;;;;;;4980166;28;20203;-93
2022/05/31 05:52:38;;;;;;;3.25;2.15;;;31.10;1.00;;;;;;4973650;28;20212;-90
2022/05/31 05:55:06;;;;;;;5.57;3.00;;;31.20;1.00;;;;;;4987712;28;20227;-92
2022/05/31 05:57:44;;;;;;;1.63;1.50;;;31.40;1.00;;;;;;4987446;28;20661;-96
2022/05/31 06:00:19;;;;;;;2.80;1.70;;;31.40;1.00;;;;;;4985568;28;20187;-92
2022/05/31 06:03:04;;;;;;;1.92;1.73;;;31.30;1.00;;;;;;4985467;28;20502;-92
2022/05/31 06:05:35;;;;;;;2.63;2.10;;;31.50;1.00;;;;;;4983684;28;20191;-93
2022/05/31 06:08:18;;;;;;;4.47;2.15;;;31.40;1.00;;;;;;4979952;28;20246;-95
2022/05/31 06:10:52;;;;;;;3.80;1.90;;;31.50;1.00;;;;;;4978418;28;20226;-93
2022/05/31 06:13:24;;;;;;;1.98;1.60;;;31.50;1.00;;;;;;4980660;28;20199;-92
2022/05/31 06:15:59;;;;;;;3.42;1.67;;;31.60;1.00;;;;;;4987330;28;20203;-92
2022/05/31 06:18:37;;;;;;;2.45;1.80;;;31.80;1.00;;;;;;4981282;28;20564;-94
2022/05/31 06:21:11;;;;;;;4.60;1.92;;;32.10;1.00;;;;;;4984150;28;20184;-93
2022/05/31 06:24:01;;;;;;;2.08;1.88;;;32.30;1.00;;;;;;4974253;28;20599;-95
2022/05/31 06:26:45;;;;;;;3.60;2.63;;;32.40;1.00;;;;;;4980304;28;20615;-94
2022/05/31 06:29:12;;;;;;;6.20;2.10;;;32.70;1.00;;;;;;4979324;28;20199;-92
2022/05/31 06:32:21;;;;;;;2.50;2.03;;;32.80;1.00;;;;;;5001913;28;20221;-93
2022/05/31 06:35:07;;;;;;;4.22;2.05;;;32.90;1.00;;;;;;4969317;28;20247;-90
2022/05/31 06:37:45;;;;;;;3.40;1.85;;;32.80;1.00;;;;;;4985406;28;20265;-94
2022/05/31 06:43:30;;;;;;;3.65;3.10;;;32.60;1.00;;;;;;4976389;28;20255;-95
2022/05/31 06:45:57;;;;;;;4.35;3.72;;;31.80;1.00;;;;;;5109811;23;20237;-92
2022/05/31 06:57:24;;;;;;;3.13;2.10;;;31.40;1.00;;;;;;5020528;28;20201;-95
2022/05/31 06:59:51;;;;;;;2.60;1.95;;;31.50;1.00;;;;;;5021851;28;20202;-92
2022/05/31 07:05:30;;;;;;;1.63;1.40;;;32.70;1.00;;;;;;5122057;27;1293537;-94
2022/05/31 07:08:07;;;;;;;5.15;2.20;;;32.60;1.00;;;;;;5158466;27;20245;-94
2022/05/31 07:10:41;;;;;;;7.40;6.50;;;32.80;1.00;;;;;;5153636;27;20201;-93
2022/05/31 07:13:27;;;;;;;4.13;2.25;;;32.70;1.00;;;;;;5158491;27;20192;-93
2022/05/31 07:15:55;;;;;;;9.75;6.68;;;32.10;1.00;;;;;;5149256;27;20193;-91
2022/05/31 07:18:24;;;;;;;2.38;1.60;;;31.80;1.00;;;;;;5161416;27;20193;-94
2022/05/31 07:21:04;;;;;;;3.25;1.45;;;32.30;1.00;;;;;;5141359;27;20178;-95
2022/05/31 07:23:31;;;;;;;3.60;1.45;;;32.50;1.00;;;;;;5142361;27;20301;-93
2022/05/31 07:25:59;;;;;;;7.45;4.88;;;31.40;1.00;;;;;;5161479;27;20581;-92
2022/05/31 07:28:29;;;;;;;3.97;2.20;;;30.40;1.00;;;;;;5159941;27;20202;-93
2022/05/31 07:31:14;;;;;;;3.10;1.42;;;30.60;1.00;;;;;;5193790;22;20688;-92
2022/05/31 07:33:42;;;;;;;2.78;1.48;;;31.30;1.00;;;;;;5095144;28;20253;-94
2022/05/31 07:36:11;;;;;;;9.63;6.13;;;31.90;1.00;;;;;;5083595;28;20269;-93
2022/05/31 07:38:38;;;;;;;1.80;1.20;;;32.70;1.00;;;;;;5095738;28;20196;-91
2022/05/31 07:41:11;;;;;;;2.38;1.10;;;33.10;1.00;;;;;;5110151;28;20207;-94
2022/05/31 07:43:39;;;;;;;;;;;32.30;1.00;;;;;;5094706;28;20123;-96
2022/05/31 07:46:07;;;;;;;;;;;32.10;1.00;;;;;;5097264;28;19920;-94
2022/05/31 07:48:45;;;;;;;3.70;1.40;;;32.40;1.00;;;;;;5097574;28;20254;-94
2022/05/31 07:51:13;;;;;;;2.85;1.30;;;32.00;1.00;;;;;;5096011;28;20272;-92
2022/05/31 07:53:41;;;;;;;6.68;2.92;;;31.50;1.00;;;;;;5101560;28;20159;-94
2022/05/31 07:56:09;;;;;;;16.33;9.05;;;30.60;1.00;;;;;;5096207;28;20228;-93
2022/05/31 07:58:38;;;;;;;3.65;1.58;;;30.70;1.00;;;;;;5097278;28;20204;-93
2022/05/31 08:01:07;;;;;;;4.32;2.53;;;30.80;1.00;;;;;;5088602;28;20200;-94
2022/05/31 08:03:43;;;;;;;11.70;7.25;;;30.30;1.00;;;;;;5097874;28;20217;-94
2022/05/31 08:06:24;;;;;;;4.30;2.22;;;29.90;1.00;;;;;;5117837;28;20183;-94
2022/05/31 08:08:52;;;;;;;20.50;11.68;;;29.30;1.00;;;;;;5095743;28;20198;-93
2022/05/31 08:11:22;;;;;;;8.48;4.30;;;28.10;1.00;;;;;;5095236;28;20656;-92
2022/05/31 08:13:55;;;;;;;3.22;1.80;;;27.20;1.00;;;;;;5100593;28;20216;-93
2022/05/31 08:16:29;;;;;;;3.85;1.95;;;26.50;1.00;;;;;;5100005;28;20180;-91
2022/05/31 08:18:58;;;;;;;78.85;37.45;;;26.00;1.00;;;;;;5086209;28;20168;-93
2022/05/31 08:21:35;;;;;;;51.47;27.95;;;25.60;1.00;;;;;;5170082;22;20217;-94
2022/05/31 08:24:05;;;;;;;4.38;2.80;;;25.40;1.00;;;;;;5104231;28;20191;-92
2022/05/31 08:26:32;;;;;;;78.57;35.40;;;24.90;1.00;;;;;;5110704;28;20190;-93
2022/05/31 08:28:59;;;;;;;57.55;24.05;;;24.40;1.00;;;;;;5096767;28;20715;-93
2022/05/31 08:31:41;;;;;;;15.52;5.95;;;24.30;1.00;;;;;;5106443;28;20192;-93
2022/05/31 08:34:09;;;;;;;81.57;39.25;;;25.50;1.00;;;;;;5144538;22;20254;-92
2022/05/31 08:36:37;;;;;;;26.58;15.65;;;26.50;1.00;;;;;;5083808;28;20204;-92
2022/05/31 08:39:04;;;;;;;4.95;2.80;;;26.80;1.00;;;;;;5085690;28;20223;-93
2022/05/31 08:41:47;;;;;;;5.50;4.50;;;26.50;1.00;;;;;;5080240;28;20202;-95
2022/05/31 08:44:33;;;;;;;9.48;7.85;;;26.50;1.00;;;;;;5081552;28;20196;-93
2022/05/31 08:47:02;;;;;;;22.50;13.80;;;26.30;1.00;;;;;;5080353;28;20196;-90
2022/05/31 08:53:19;;;;;;;9.32;7.10;;;26.90;1.00;;;;;;5080542;28;20605;-93
2022/05/31 08:58:50;;;;;;;4.30;2.60;;;26.40;1.00;;;;;;5069894;28;20659;-92
2022/05/31 09:01:21;;;;;;;10.05;7.72;;;26.30;1.00;;;;;;5083082;28;20200;-94
2022/05/31 09:04:04;;;;;;;1.73;1.40;;;26.50;1.00;;;;;;5083962;28;20191;-91
2022/05/31 09:06:47;;;;;;;6.97;4.78;;;27.40;1.00;;;;;;5084388;28;20191;-93
2022/05/31 09:09:23;;;;;;;3.30;1.65;;;28.50;1.00;;;;;;5072201;28;20283;-95
2022/05/31 09:11:59;;;;;;;2.75;1.38;;;29.40;1.00;;;;;;5083684;28;20235;-92
2022/05/31 09:14:42;;;;;;;1.20;1.10;;;29.90;1.00;;;;;;5078386;28;20223;-95
2022/05/31 09:17:29;;;;;;;2.42;1.17;;;30.10;1.00;;;;;;5088187;28;20211;-94
2022/05/31 09:20:06;;;;;;;1.42;1.10;;;30.50;1.00;;;;;;5089230;28;20195;-94
2022/05/31 09:22:49;;;;;;;7.53;6.18;;;30.70;1.00;;;;;;5085065;28;20249;-93
2022/05/31 09:25:28;;;;;;;1.50;1.15;;;30.90;1.00;;;;;;5080975;28;20214;-93
2022/05/31 09:27:59;;;;;;;1.52;1.10;;;31.20;1.00;;;;;;5085514;28;20180;-96
2022/05/31 09:30:57;;;;;;;1.60;1.10;;;31.50;1.00;;;;;;5088508;28;20200;-92
2022/05/31 09:33:33;;;;;;;2.90;1.60;;;30.90;1.00;;;;;;5050054;28;20223;-91
2022/05/31 09:36:37;;;;;;;1.30;1.20;;;29.90;1.00;;;;;;5240416;22;20260;-92
2022/05/31 09:39:21;;;;;;;2.03;1.40;;;29.10;1.00;;;;;;5103584;28;20675;-92
2022/05/31 09:42:02;;;;;;;2.50;1.52;;;28.30;1.00;;;;;;5104559;28;20129;-91
2022/05/31 09:44:52;;;;;;;2.00;1.70;;;27.60;1.00;;;;;;5102202;28;20226;-92
2022/05/31 09:47:23;;;;;;;1.70;1.50;;;27.40;1.00;;;;;;5101854;28;20182;-91
2022/05/31 09:49:52;;;;;;;3.35;2.78;;;27.30;1.00;;;;;;5103185;28;20255;-91
2022/05/31 09:52:35;;;;;;;3.35;1.77;;;27.40;1.00;;;;;;5100967;28;20180;-94
2022/05/31 09:58:12;;;;;;;4.30;1.50;;;26.90;1.00;;;;;;5092513;28;20183;-93
2022/05/31 10:01:14;;;;;;;2.22;1.40;;;26.80;1.00;;;;;;5087094;28;20267;-92
2022/05/31 10:03:53;;;;;;;2.00;1.60;;;26.90;1.00;;;;;;5100422;28;20191;-91
2022/05/31 10:06:22;;;;;;;3.08;1.40;;;27.00;1.00;;;;;;5093885;28;20200;-88
2022/05/31 10:08:51;;;;;;;2.45;1.50;;;27.20;1.00;;;;;;5093441;28;20191;-89
2022/05/31 10:11:30;;;;;;;2.00;1.40;;;27.50;1.00;;;;;;5096818;28;20199;-95
2022/05/31 10:14:08;;;;;;;1.83;1.30;;;27.50;1.00;;;;;;5119263;28;20179;-92
2022/05/31 10:16:37;;;;;;;1.40;1.30;;;26.90;1.00;;;;;;5113946;28;20211;-92
2022/05/31 10:19:27;;;;;;;2.28;1.40;;;26.20;1.00;;;;;;5094603;28;20199;-92
2022/05/31 10:22:01;;;;;;;1.70;1.40;;;25.80;1.00;;;;;;5118976;28;20175;-93
2022/05/31 10:24:52;;;;;;;3.88;1.60;;;25.60;1.00;;;;;;5119231;28;20285;-95
2022/05/31 10:27:29;;;;;;;2.75;1.52;;;25.30;1.00;;;;;;5118933;28;20202;-93
2022/05/31 10:30:10;;;;;;;2.50;1.70;;;25.10;1.00;;;;;;5119046;28;20179;-96
2022/05/31 10:32:51;;;;;;;2.35;1.60;;;25.00;1.00;;;;;;5098793;28;20177;-95
2022/05/31 10:35:42;;;;;;;2.55;1.30;;;24.80;1.00;;;;;;5099720;28;20295;-87
2022/05/31 10:42:11;;;;;;;1.98;1.30;;;24.30;1.00;;;;;;4916717;29;20214;-93
2022/05/31 10:44:46;;;;;;;4.13;1.48;;;24.00;1.00;;;;;;5074120;28;20225;-91
2022/05/31 10:47:40;;;;;;;2.65;1.70;;;23.90;1.00;;;;;;5099961;28;20196;-90
2022/05/31 10:50:11;;;;;;;1.90;1.70;;;24.00;1.00;;;;;;5095708;28;20215;-94
2022/05/31 10:52:56;;;;;;;1.95;1.35;;;23.80;1.00;;;;;;5103305;28;20191;-94
2022/05/31 10:55:41;;;;;;;1.65;1.55;;;23.80;1.00;;;;;;5118625;28;20217;-94
2022/05/31 10:58:36;;;;;;;3.55;1.50;;;23.90;1.00;;;;;;5118518;28;20189;-91
2022/05/31 11:01:34;;;;;;;2.78;1.60;;;23.90;1.00;;;;;;5118559;28;20194;-95
2022/05/31 11:04:30;;;;;;;3.08;1.35;;;23.80;1.00;;;;;;5118592;28;20191;-93
2022/05/31 11:07:19;;;;;;;5.30;1.67;;;23.60;1.00;;;;;;5117996;28;20179;-92
2022/05/31 11:13:21;;;;;;;1.65;1.30;;;24.30;1.00;;;;;;5118669;28;20183;-93
2022/05/31 11:16:12;;;;;;;1.88;1.20;;;24.70;1.00;;;;;;5117998;28;20167;-93
2022/05/31 11:19:20;;;;;;;1.83;1.17;;;25.00;1.00;;;;;;5117834;28;20187;-96
2022/05/31 11:22:12;;;;;;;2.25;1.20;;;25.30;1.00;;;;;;5111973;28;20196;-91
2022/05/31 11:25:05;;;;;;;1.92;1.40;;;25.40;1.00;;;;;;5102177;28;20268;-96
2022/05/31 11:27:38;;;;;;;;;;;25.20;1.00;;;;;;5100874;28;20332;-93
2022/05/31 11:30:25;;;;;;;2.63;0.93;;;25.10;1.00;;;;;;5114003;28;20390;-94
2022/05/31 11:33:21;;;;;;;1.50;0.95;;;25.00;1.00;;;;;;5118073;28;20213;-90
2022/05/31 11:36:20;;;;;;;2.65;0.90;;;24.90;1.00;;;;;;5105562;28;20211;-92
2022/05/31 11:39:07;;;;;;;30.05;21.70;;;24.80;1.00;;;;;;5117922;28;20200;-93
2022/05/31 11:42:04;;;;;;;1.15;0.90;;;24.80;1.00;;;;;;5117963;28;20199;-95
2022/05/31 11:45:13;;;;;;;2.10;0.88;;;24.70;1.00;;;;;;5118361;28;20207;-89
2022/05/31 11:51:22;;;;;;;1.55;0.90;;;24.00;1.00;;;;;;5096373;28;20155;-94
2022/05/31 11:54:35;;;;;;;1.65;0.80;;;23.90;1.00;;;;;;5109578;28;20240;-93
2022/05/31 11:57:19;;;;;;;1.38;0.90;;;24.00;1.00;;;;;;5045922;28;20223;-91
2022/05/31 12:00:15;;;;;;;2.55;0.93;;;24.00;1.00;;;;;;5054564;28;20220;-91
2022/05/31 12:03:05;;;;;;;;;;;;;;;;;;;;;
2022/05/31 12:05:35;;;;;;;2.20;0.80;;;23.40;1.00;;;;;;5079129;28;20373;-92
2022/05/31 12:11:06;;;;;;;1.55;0.80;;;23.40;1.00;;;;;;5093618;28;20199;-90
2022/05/31 12:13:37;;;;;;;1.17;0.77;;;23.60;1.00;;;;;;5104228;28;20209;-95
2022/05/31 12:16:05;;;;;;;4.45;0.85;;;23.50;1.00;;;;;;5102917;28;20204;-90
2022/05/31 12:18:38;;;;;;;6.80;1.55;;;23.50;1.00;;;;;;5100498;28;20227;-88
2022/05/31 12:21:13;;;;;;;1.45;1.08;;;23.70;1.00;;;;;;5104683;28;20237;-89
2022/05/31 12:23:57;;;;;;;1.42;0.88;;;23.80;1.00;;;;;;5104287;28;20225;-93
2022/05/31 12:26:35;;;;;;;1.00;0.90;;;23.70;1.00;;;;;;5105584;28;20690;-89
2022/05/31 12:29:13;;;;;;;0.93;0.85;;;23.50;1.00;;;;;;5105287;28;20195;-88
2022/05/31 12:31:43;;;;;;;3.65;1.27;;;23.20;1.00;;;;;;5103174;28;20221;-92
2022/05/31 12:34:49;;;;;;;7.18;4.22;;;23.10;1.00;;;;;;5090086;28;20674;-87
2022/05/31 12:37:16;;;;;;;5.65;1.90;;;23.20;1.00;;;;;;5103517;28;20236;-87
2022/05/31 12:40:09;;;;;;;1.30;0.90;;;23.30;1.00;;;;;;5102647;28;20238;-88
2022/05/31 12:42:42;;;;;;;3.72;1.00;;;23.50;1.00;;;;;;5084295;28;20223;-88
2022/05/31 12:45:28;;;;;;;4.80;1.10;;;23.70;1.00;;;;;;5086313;28;20587;-90
2022/05/31 12:47:57;;;;;;;3.80;1.40;;;23.90;1.00;;;;;;5090626;28;20206;-87
2022/05/31 12:50:47;;;;;;;2.30;1.25;;;23.90;1.00;;;;;;5105501;28;20230;-91
2022/05/31 12:53:22;;;;;;;1.92;1.20;;;23.90;1.00;;;;;;5106032;28;20194;-89
2022/05/31 12:55:57;;;;;;;2.20;1.05;;;24.00;1.00;;;;;;5098398;28;20253;-89
2022/05/31 12:59:03;;;;;;;3.60;1.10;;;23.90;1.00;;;;;;5105141;28;20194;-89
2022/05/31 13:01:46;;;;;;;1.85;1.20;;;23.90;1.00;;;;;;5078108;28;20681;-88
2022/05/31 13:04:28;;;;;;;2.38;1.80;;;24.00;1.00;;;;;;5100764;28;20272;-90
2022/05/31 13:07:19;;;;;;;2.55;1.20;;;24.10;1.00;;;;;;5100542;28;20616;-91
2022/05/31 13:09:49;;;;;;;3.33;1.52;;;24.10;1.00;;;;;;5102460;28;20274;-94
2022/05/31 13:21:41;;;;;;;2.33;1.25;;;23.90;1.00;;;;;;5102386;28;20252;-87
2022/05/31 13:24:16;;;;;;;3.60;1.10;;;23.80;1.00;;;;;;5103415;28;20239;-86
2022/05/31 13:26:44;;;;;;;2.22;1.20;;;23.80;1.00;;;;;;5102235;28;20246;-89
2022/05/31 13:29:21;;;;;;;2.22;1.30;;;23.80;1.00;;;;;;5104500;28;20200;-89
2022/05/31 13:31:57;;;;;;;1.98;1.13;;;23.80;1.00;;;;;;5096216;28;20188;-91
2022/05/31 13:34:30;;;;;;;2.05;1.55;;;23.80;1.00;;;;;;5099175;28;20231;-89
2022/05/31 13:36:59;;;;;;;1.75;1.10;;;23.80;1.00;;;;;;5102368;28;20223;-90
2022/05/31 13:39:27;;;;;;;1.95;1.40;;;23.90;1.00;;;;;;5101216;28;20220;-87
2022/05/31 13:42:05;;;;;;;3.03;1.50;;;24.00;1.00;;;;;;5100403;28;20657;-90
2022/05/31 13:44:40;;;;;;;3.80;1.45;;;24.00;1.00;;;;;;5095011;28;20222;-88
2022/05/31 13:47:12;;;;;;;1.73;1.20;;;23.90;1.00;;;;;;5101012;28;20272;-92
2022/05/31 13:49:53;;;;;;;3.25;1.40;;;23.90;1.00;;;;;;5097638;28;20188;-88
2022/05/31 13:52:50;;;;;;;3.92;1.40;;;23.80;1.00;;;;;;5101088;28;20713;-89
2022/05/31 13:55:33;;;;;;;2.28;1.20;;;23.80;1.00;;;;;;5097247;28;20284;-87
2022/05/31 13:58:23;;;;;;;1.40;1.27;;;23.90;1.00;;;;;;5091220;28;20203;-90
2022/05/31 14:00:51;;;;;;;2.45;1.30;;;23.80;1.00;;;;;;5091744;28;20190;-87
2022/05/31 14:03:22;;;;;;;1.58;1.30;;;23.70;1.00;;;;;;5087165;28;20329;-85
2022/05/31 14:06:02;;;;;;;3.67;1.80;;;23.70;1.00;;;;;;5092649;28;20203;-90
2022/05/31 14:08:40;;;;;;;2.90;1.60;;;23.70;1.00;;;;;;5098542;28;20195;-89
2022/05/31 14:11:21;;;;;;;2.50;1.08;;;23.50;1.00;;;;;;5080379;28;20192;-89
2022/05/31 14:13:51;;;;;;;4.80;1.42;;;23.40;1.00;;;;;;5087634;28;20227;-88
2022/05/31 14:19:36;;;;;;;2.20;1.33;;;23.30;1.00;;;;;;5094440;28;20220;-90
2022/05/31 14:22:18;;;;;;;2.78;1.75;;;23.30;1.00;;;;;;5097681;28;20209;-90
2022/05/31 14:24:49;;;;;;;1.92;1.30;;;23.20;1.00;;;;;;5112068;28;20173;-87
2022/05/31 14:27:23;;;;;;;2.40;1.15;;;23.00;1.00;;;;;;5080503;28;20179;-88
2022/05/31 14:29:59;;;;;;;1.52;1.20;;;22.90;1.00;;;;;;5083925;28;20196;-88
2022/05/31 14:32:33;;;;;;;2.78;1.30;;;22.90;1.00;;;;;;5081236;28;20228;-87
2022/05/31 14:35:14;;;;;;;2.13;1.30;;;22.80;1.00;;;;;;5084202;28;20229;-92